Time;durP1;ratioP1;P1;durP2;ratioP2;P2;SDS_P1;SDS_P2;PMS_P1;PMS_P2;Temp;Humidity;BMP_temperature;BMP_pressure;BME280_temperature;BME280_humidity;BME280_pressure;Samples;Min_cycle;Max_cycle;Signal;HPM_P1;HPM_P2
2021/03/13 00:01:12;;;;;;;3.93;3.63;;;9.10;99.90;;;;;;5068665;28;20840;-66
2021/03/13 00:03:38;;;;;;;3.20;2.90;;;9.00;99.90;;;;;;5068237;28;20557;-66
2021/03/13 00:06:04;;;;;;;3.23;2.93;;;9.10;99.90;;;;;;5071519;28;20444;-66
2021/03/13 00:08:30;;;;;;;3.10;2.80;;;9.10;99.90;;;;;;5064267;28;20430;-68
2021/03/13 00:10:56;;;;;;;2.90;2.70;;;9.10;99.90;;;;;;5068646;28;20550;-66
2021/03/13 00:13:21;;;;;;;2.83;2.63;;;9.20;99.90;;;;;;5069057;28;20418;-66
2021/03/13 00:15:47;;;;;;;3.07;2.87;;;9.20;99.90;;;;;;5068599;28;20173;-66
2021/03/13 00:18:14;;;;;;;2.93;2.73;;;9.20;99.90;;;;;;5067790;28;20208;-66
2021/03/13 00:20:41;;;;;;;3.83;3.43;;;9.20;99.90;;;;;;5068031;28;20169;-66
2021/03/13 00:23:08;;;;;;;4.60;3.67;;;9.00;1.00;;;;;;5068541;28;20502;-66
2021/03/13 00:25:35;;;;;;;4.60;3.60;;;8.70;46.40;;;;;;5068675;28;20423;-66
2021/03/13 00:28:02;;;;;;;3.70;3.50;;;8.50;1.00;;;;;;5068919;28;20430;-66
2021/03/13 00:30:34;;;;;;;3.00;2.80;;;8.20;99.90;;;;;;5066800;28;21243;-66
2021/03/13 00:33:21;;;;;;;3.10;2.90;;;8.10;99.90;;;;;;5067214;28;20430;-66
2021/03/13 00:35:50;;;;;;;3.20;3.00;;;7.90;99.90;;;;;;5060838;28;20498;-66
2021/03/13 00:38:16;;;;;;;4.10;3.10;;;7.70;99.90;;;;;;5068385;28;20429;-66
2021/03/13 00:40:44;;;;;;;3.23;3.00;;;7.50;99.90;;;;;;5068201;28;20442;-66
2021/03/13 00:43:11;;;;;;;2.92;2.72;;;7.30;1.00;;;;;;5055932;28;20430;-66
2021/03/13 00:45:38;;;;;;;3.00;2.80;;;7.20;1.00;;;;;;5066782;28;20193;-66
2021/03/13 00:48:05;;;;;;;3.05;2.65;;;7.20;1.00;;;;;;5067769;28;20250;-66
2021/03/13 00:50:32;;;;;;;2.38;2.17;;;7.10;1.00;;;;;;5067938;28;20176;-66
2021/03/13 00:52:58;;;;;;;2.50;2.30;;;7.00;1.00;;;;;;5068208;28;20187;-66
2021/03/13 00:55:24;;;;;;;2.00;1.80;;;7.00;1.00;;;;;;5068002;28;20243;-66
2021/03/13 00:57:50;;;;;;;2.60;2.40;;;6.80;1.00;;;;;;5067828;28;20201;-65
2021/03/13 01:00:19;;;;;;;2.08;1.88;;;6.70;1.00;;;;;;5067152;28;20202;-65
2021/03/13 01:02:46;;;;;;;1.80;1.70;;;6.70;1.00;;;;;;5065668;28;20718;-65
2021/03/13 01:05:12;;;;;;;2.38;1.70;;;6.60;1.00;;;;;;5067782;28;20215;-65
2021/03/13 01:07:38;;;;;;;1.70;1.60;;;6.50;1.00;;;;;;5067443;28;20193;-65
2021/03/13 01:10:09;;;;;;;2.95;1.65;;;6.60;1.00;;;;;;5068601;28;20492;-66
2021/03/13 01:12:34;;;;;;;1.60;1.50;;;6.60;1.00;;;;;;5067842;28;20173;-66
2021/03/13 01:15:00;;;;;;;1.50;1.40;;;6.60;1.00;;;;;;5066628;28;20532;-66
2021/03/13 01:17:26;;;;;;;1.73;1.63;;;6.60;1.00;;;;;;5067945;28;20265;-66
2021/03/13 01:19:51;;;;;;;2.60;1.60;;;6.60;1.00;;;;;;5068448;28;20186;-66
2021/03/13 01:22:17;;;;;;;1.47;1.40;;;6.70;1.00;;;;;;5067028;28;20183;-66
2021/03/13 01:24:42;;;;;;;1.60;1.50;;;6.70;99.90;;;;;;5072382;28;20213;-65
2021/03/13 01:27:09;;;;;;;1.50;1.40;;;6.70;99.90;;;;;;5071671;28;20166;-64
2021/03/13 01:29:35;;;;;;;1.77;1.67;;;6.80;99.90;;;;;;5071293;28;20180;-65
2021/03/13 01:32:03;;;;;;;2.40;1.40;;;6.80;99.90;;;;;;5070676;28;21082;-65
2021/03/13 01:34:30;;;;;;;1.60;1.50;;;6.80;99.90;;;;;;5082290;28;20206;-64
2021/03/13 01:36:56;;;;;;;1.50;1.40;;;6.70;99.90;;;;;;5075477;28;20186;-65
2021/03/13 01:39:22;;;;;;;1.70;1.50;;;6.80;99.90;;;;;;5070503;28;20561;-66
2021/03/13 01:41:47;;;;;;;1.93;1.60;;;6.80;56.20;;;;;;5070713;28;20475;-65
2021/03/13 01:44:13;;;;;;;1.50;1.40;;;6.80;1.00;;;;;;5071886;28;20189;-66
2021/03/13 01:46:39;;;;;;;1.50;1.50;;;6.80;1.00;;;;;;5068038;28;20296;-66
2021/03/13 01:49:05;;;;;;;1.50;1.40;;;6.80;1.00;;;;;;5071533;28;20187;-65
2021/03/13 01:51:31;;;;;;;2.42;1.60;;;6.80;1.00;;;;;;5069326;28;20608;-66
2021/03/13 01:53:56;;;;;;;1.60;1.50;;;6.80;1.00;;;;;;5077522;28;20196;-66
2021/03/13 01:56:22;;;;;;;1.40;1.30;;;6.80;1.00;;;;;;5079176;28;20202;-67
2021/03/13 01:58:48;;;;;;;1.40;1.30;;;6.80;1.00;;;;;;5067411;28;20187;-66
2021/03/13 02:01:13;;;;;;;1.67;1.57;;;6.70;1.00;;;;;;5070674;28;20610;-66
2021/03/13 02:03:43;;;;;;;1.33;1.23;;;6.70;1.00;;;;;;5069126;28;20230;-65
2021/03/13 02:06:08;;;;;;;1.40;1.35;;;6.70;1.00;;;;;;5070209;28;20190;-67
2021/03/13 02:09:11;;;;;;;1.30;1.30;;;6.70;1.00;;;;;;5070945;28;20183;-66
2021/03/13 02:11:48;;;;;;;1.40;1.30;;;6.60;1.00;;;;;;5069658;28;20222;-65
2021/03/13 02:14:46;;;;;;;1.95;1.40;;;6.60;1.00;;;;;;5070075;28;20267;-65
2021/03/13 02:17:18;;;;;;;1.45;1.35;;;6.60;1.00;;;;;;5068363;28;20183;-65
2021/03/13 02:19:52;;;;;;;1.58;1.50;;;6.50;1.00;;;;;;5062896;28;20264;-65
2021/03/13 02:22:20;;;;;;;1.20;1.20;;;6.40;1.00;;;;;;5070822;28;20174;-65
2021/03/13 02:25:17;;;;;;;1.45;1.38;;;6.50;1.00;;;;;;5062633;28;20185;-64
2021/03/13 02:27:56;;;;;;;3.75;1.70;;;6.50;1.00;;;;;;5051622;28;20178;-65
2021/03/13 02:30:24;;;;;;;1.50;1.40;;;6.40;1.00;;;;;;5069280;28;20220;-66
2021/03/13 02:33:04;;;;;;;1.30;1.30;;;6.40;1.00;;;;;;5070891;28;20232;-65
2021/03/13 02:35:42;;;;;;;1.65;1.40;;;6.40;1.00;;;;;;5067725;28;20195;-65
2021/03/13 02:38:13;;;;;;;1.40;1.40;;;6.40;1.00;;;;;;5070163;28;20209;-67
2021/03/13 02:40:40;;;;;;;1.85;1.75;;;6.50;1.00;;;;;;5068448;28;20179;-65
2021/03/13 02:43:08;;;;;;;1.77;1.38;;;6.50;99.90;;;;;;5070658;28;20276;-65
2021/03/13 02:45:38;;;;;;;1.70;1.60;;;6.50;99.90;;;;;;5068640;28;20472;-65
2021/03/13 02:48:08;;;;;;;1.60;1.50;;;6.50;99.90;;;;;;5070606;28;20185;-66
2021/03/13 02:50:35;;;;;;;1.58;1.48;;;6.50;8.60;;;;;;5057486;28;20178;-65
2021/03/13 02:53:01;;;;;;;1.50;1.40;;;6.60;1.00;;;;;;5068430;28;20201;-65
2021/03/13 02:55:28;;;;;;;1.50;1.40;;;6.50;1.40;;;;;;5069346;28;20194;-65
2021/03/13 02:57:56;;;;;;;1.60;1.50;;;6.60;1.00;;;;;;5068547;28;20463;-65
2021/03/13 03:00:25;;;;;;;1.88;1.40;;;6.70;99.90;;;;;;5068112;28;20204;-65
2021/03/13 03:02:55;;;;;;;1.30;1.30;;;6.60;1.00;;;;;;5067669;28;20221;-66
2021/03/13 03:05:24;;;;;;;1.67;1.58;;;6.60;99.90;;;;;;5069125;28;20251;-66
2021/03/13 03:07:56;;;;;;;1.63;1.52;;;6.60;1.00;;;;;;5069362;28;20193;-65
2021/03/13 03:10:28;;;;;;;1.60;1.50;;;6.60;1.00;;;;;;5068718;28;20190;-66
2021/03/13 03:12:56;;;;;;;1.40;1.30;;;6.60;1.00;;;;;;5075867;28;20215;-66
2021/03/13 03:15:24;;;;;;;1.60;1.50;;;6.60;1.00;;;;;;5068999;28;21015;-66
2021/03/13 03:17:52;;;;;;;1.45;1.40;;;6.50;1.00;;;;;;5069529;28;20176;-66
2021/03/13 03:20:20;;;;;;;1.58;1.48;;;6.50;32.20;;;;;;5072991;28;20196;-67
2021/03/13 03:22:46;;;;;;;1.38;1.38;;;6.50;1.00;;;;;;5056201;28;20196;-66
2021/03/13 03:25:12;;;;;;;1.42;1.42;;;6.50;1.00;;;;;;5072569;28;20172;-66
2021/03/13 03:27:50;;;;;;;1.40;1.40;;;6.50;1.00;;;;;;5069699;28;20599;-65
2021/03/13 03:30:27;;;;;;;1.50;1.40;;;6.50;1.00;;;;;;5066782;28;20623;-65
2021/03/13 03:32:53;;;;;;;1.65;1.52;;;6.50;1.00;;;;;;5073102;28;20248;-66
2021/03/13 03:35:19;;;;;;;1.23;1.23;;;6.50;1.00;;;;;;5070853;28;20201;-65
2021/03/13 03:37:46;;;;;;;1.40;1.40;;;6.60;99.90;;;;;;5070657;28;20266;-64
2021/03/13 03:40:14;;;;;;;1.63;1.52;;;6.50;99.90;;;;;;5066765;28;20633;-66
2021/03/13 03:42:52;;;;;;;1.65;1.55;;;6.60;1.00;;;;;;5069007;28;20182;-66
2021/03/13 03:45:22;;;;;;;1.90;1.70;;;6.60;1.00;;;;;;5067141;28;20295;-65
2021/03/13 03:47:49;;;;;;;1.90;1.52;;;6.60;99.90;;;;;;5062194;28;20195;-65
2021/03/13 03:50:17;;;;;;;1.60;1.60;;;6.60;99.90;;;;;;5067756;28;20181;-65
2021/03/13 03:52:48;;;;;;;1.80;1.50;;;6.70;80.10;;;;;;5066848;28;20193;-65
2021/03/13 03:55:17;;;;;;;1.50;1.50;;;6.80;1.00;;;;;;5067775;28;20259;-65
2021/03/13 03:57:44;;;;;;;1.30;1.30;;;6.70;1.00;;;;;;5063960;28;20193;-65
2021/03/13 04:00:10;;;;;;;1.60;1.50;;;6.70;99.90;;;;;;5061593;28;20182;-64
2021/03/13 04:02:36;;;;;;;1.80;1.70;;;6.70;99.90;;;;;;5067193;28;20257;-65
2021/03/13 04:05:05;;;;;;;1.55;1.45;;;6.70;9.80;;;;;;5068390;28;20213;-66
2021/03/13 04:07:33;;;;;;;1.80;1.70;;;6.70;99.90;;;;;;5067843;28;20247;-65
2021/03/13 04:10:02;;;;;;;1.40;1.40;;;6.70;99.90;;;;;;5066623;28;20622;-66
2021/03/13 04:12:28;;;;;;;1.52;1.52;;;6.60;99.90;;;;;;5069347;28;20201;-66
2021/03/13 04:14:54;;;;;;;1.85;1.65;;;6.60;99.90;;;;;;5068575;28;20214;-66
2021/03/13 04:17:20;;;;;;;1.77;1.70;;;6.60;99.90;;;;;;5068243;28;20261;-66
2021/03/13 04:19:46;;;;;;;1.90;1.80;;;6.70;99.90;;;;;;5062413;28;20200;-66
2021/03/13 04:22:12;;;;;;;1.80;1.70;;;6.60;99.90;;;;;;5066918;28;20898;-66
2021/03/13 04:24:39;;;;;;;1.80;1.70;;;6.60;99.90;;;;;;5066490;28;20191;-66
2021/03/13 04:27:05;;;;;;;2.10;2.00;;;6.60;99.90;;;;;;5068955;28;20187;-66
2021/03/13 04:29:30;;;;;;;2.15;1.95;;;6.60;99.90;;;;;;5067728;28;20201;-66
2021/03/13 04:31:59;;;;;;;1.83;1.73;;;6.70;1.00;;;;;;5068074;28;20193;-67
2021/03/13 04:34:25;;;;;;;1.85;1.75;;;6.70;97.00;;;;;;5067972;28;20201;-66
2021/03/13 04:36:51;;;;;;;1.90;1.80;;;6.70;1.00;;;;;;5067752;28;20188;-66
2021/03/13 04:39:17;;;;;;;1.90;1.80;;;6.70;1.00;;;;;;5066238;28;20186;-66
2021/03/13 04:41:45;;;;;;;3.05;1.90;;;6.80;1.00;;;;;;5075721;28;20513;-66
2021/03/13 04:44:11;;;;;;;2.13;1.92;;;6.70;1.00;;;;;;5072676;28;20188;-66
2021/03/13 04:46:37;;;;;;;2.10;1.90;;;6.70;1.00;;;;;;5066722;28;20193;-66
2021/03/13 04:49:07;;;;;;;1.70;1.70;;;6.50;1.00;;;;;;5068833;28;20506;-66
2021/03/13 04:51:33;;;;;;;1.75;1.65;;;6.50;99.90;;;;;;5067214;28;20194;-66
2021/03/13 04:53:59;;;;;;;1.93;1.70;;;6.40;99.90;;;;;;5067993;28;20210;-67
2021/03/13 04:56:24;;;;;;;2.00;1.90;;;6.30;1.00;;;;;;5063293;28;20486;-66
2021/03/13 04:58:50;;;;;;;2.03;1.93;;;6.20;92.00;;;;;;5072091;28;20439;-67
2021/03/13 05:01:15;;;;;;;2.03;1.93;;;6.30;99.90;;;;;;5072170;28;20536;-66
2021/03/13 05:03:41;;;;;;;2.20;2.10;;;6.30;99.90;;;;;;5070765;28;20896;-66
2021/03/13 05:06:07;;;;;;;2.33;2.13;;;6.40;1.00;;;;;;5071041;28;20579;-67
2021/03/13 05:08:32;;;;;;;2.00;1.90;;;6.30;99.90;;;;;;5082861;28;20656;-67
2021/03/13 05:10:58;;;;;;;2.33;2.23;;;6.10;1.00;;;;;;5081987;28;20255;-67
2021/03/13 05:13:24;;;;;;;2.20;2.10;;;6.00;1.00;;;;;;5071870;28;20185;-67
2021/03/13 05:15:50;;;;;;;3.53;2.10;;;6.00;1.00;;;;;;5071843;28;20662;-67
2021/03/13 05:18:15;;;;;;;2.90;2.70;;;5.90;1.00;;;;;;5071407;28;20181;-67
2021/03/13 05:20:41;;;;;;;3.60;3.20;;;5.80;1.00;;;;;;5071337;28;20184;-65
2021/03/13 05:23:06;;;;;;;2.20;2.10;;;5.90;1.00;;;;;;5070647;28;20693;-65
2021/03/13 05:25:32;;;;;;;2.83;2.37;;;5.80;1.00;;;;;;5071230;28;20273;-66
2021/03/13 05:27:57;;;;;;;2.77;2.57;;;5.70;25.10;;;;;;5072280;28;20201;-65
2021/03/13 05:30:23;;;;;;;2.80;2.33;;;5.70;88.90;;;;;;5074458;28;20273;-66
2021/03/13 05:32:49;;;;;;;2.70;2.50;;;5.70;99.90;;;;;;5076468;28;20662;-66
2021/03/13 05:35:14;;;;;;;2.53;2.33;;;5.70;99.90;;;;;;5075287;28;20206;-66
2021/03/13 05:37:40;;;;;;;2.90;2.70;;;5.80;99.90;;;;;;5071695;28;20535;-65
2021/03/13 05:40:07;;;;;;;2.50;2.33;;;5.80;99.90;;;;;;5068588;28;20189;-66
2021/03/13 05:42:36;;;;;;;2.30;2.20;;;5.80;99.90;;;;;;5064705;28;20722;-66
2021/03/13 05:45:02;;;;;;;2.40;2.30;;;5.80;99.90;;;;;;5071560;28;20283;-65
2021/03/13 05:47:29;;;;;;;2.63;2.42;;;5.80;99.90;;;;;;5070817;28;20190;-66
2021/03/13 05:50:10;;;;;;;2.60;2.40;;;5.80;99.90;;;;;;5069378;28;20687;-65
2021/03/13 05:52:38;;;;;;;2.97;2.40;;;5.80;99.90;;;;;;5069828;28;20188;-66
2021/03/13 05:55:05;;;;;;;2.22;2.10;;;5.90;99.90;;;;;;5069593;28;20324;-66
2021/03/13 05:57:31;;;;;;;2.13;2.03;;;5.90;99.90;;;;;;5070709;28;20199;-65
2021/03/13 05:59:57;;;;;;;2.83;2.63;;;5.90;99.90;;;;;;5070556;28;21052;-66
2021/03/13 06:02:23;;;;;;;2.30;2.10;;;6.00;99.90;;;;;;5069219;28;20472;-66
2021/03/13 06:04:53;;;;;;;2.30;2.20;;;6.10;99.90;;;;;;5070333;28;20549;-66
2021/03/13 06:07:21;;;;;;;3.13;2.50;;;6.10;1.00;;;;;;5069049;28;21304;-66
2021/03/13 06:09:55;;;;;;;2.97;2.78;;;6.20;1.00;;;;;;5070739;28;20189;-67
2021/03/13 06:12:21;;;;;;;3.22;2.40;;;6.20;99.90;;;;;;5069796;28;20194;-66
2021/03/13 06:14:51;;;;;;;3.00;2.80;;;6.30;99.90;;;;;;5071270;28;20694;-69
2021/03/13 06:17:18;;;;;;;3.05;2.78;;;6.30;99.90;;;;;;5069565;28;20718;-69
2021/03/13 06:19:48;;;;;;;3.13;2.30;;;6.40;1.00;;;;;;5069332;28;20191;-70
2021/03/13 06:22:40;;;;;;;3.28;2.88;;;6.50;99.90;;;;;;5069689;28;20190;-70
2021/03/13 06:25:25;;;;;;;2.90;2.70;;;6.60;1.00;;;;;;5068993;28;20210;-68
2021/03/13 06:28:10;;;;;;;2.90;2.53;;;6.70;99.90;;;;;;5070523;28;20216;-72
2021/03/13 06:30:41;;;;;;;2.50;2.30;;;6.90;1.00;;;;;;5061585;28;20681;-71
2021/03/13 06:33:26;;;;;;;2.93;2.77;;;6.90;1.00;;;;;;5074598;28;20190;-71
2021/03/13 06:35:54;;;;;;;3.42;2.83;;;7.00;32.60;;;;;;5060702;28;20429;-71
2021/03/13 06:38:23;;;;;;;3.60;3.30;;;7.10;99.90;;;;;;5060584;28;20187;-71
2021/03/13 06:40:51;;;;;;;4.53;4.17;;;7.10;1.00;;;;;;5058559;28;20255;-71
2021/03/13 06:43:21;;;;;;;4.83;4.40;;;7.10;99.90;;;;;;5060152;28;20531;-71
2021/03/13 06:46:07;;;;;;;4.43;4.13;;;7.10;1.00;;;;;;5060390;28;20521;-71
2021/03/13 06:48:49;;;;;;;5.00;4.60;;;7.10;99.90;;;;;;5059537;28;20238;-71
2021/03/13 06:51:15;;;;;;;5.50;5.00;;;7.10;99.90;;;;;;5060580;28;20433;-70
2021/03/13 06:53:41;;;;;;;6.20;5.70;;;7.20;99.90;;;;;;5059877;28;20854;-71
2021/03/13 06:56:09;;;;;;;5.40;4.57;;;7.30;99.90;;;;;;5060543;28;20803;-70
2021/03/13 06:58:35;;;;;;;4.43;4.03;;;7.30;1.00;;;;;;5059396;28;20517;-70
2021/03/13 07:01:05;;;;;;;4.53;4.23;;;7.30;1.00;;;;;;5060063;28;20800;-70
2021/03/13 07:03:32;;;;;;;4.50;4.10;;;7.40;1.00;;;;;;5059679;28;20562;-70
2021/03/13 07:05:58;;;;;;;4.70;4.30;;;7.40;1.00;;;;;;5060316;28;20936;-70
2021/03/13 07:08:28;;;;;;;6.43;5.83;;;7.40;1.00;;;;;;5058708;28;20434;-70
2021/03/13 07:11:03;;;;;;;16.23;10.40;;;7.50;4.70;;;;;;5065436;28;20438;-70
2021/03/13 07:13:50;;;;;;;6.93;6.17;;;7.60;1.00;;;;;;5068615;28;20429;-70
2021/03/13 07:16:26;;;;;;;5.83;4.93;;;7.70;1.00;;;;;;5067501;28;21366;-70
2021/03/13 07:19:12;;;;;;;4.80;4.40;;;7.80;1.00;;;;;;5068198;28;20461;-71
2021/03/13 07:21:40;;;;;;;4.67;4.27;;;7.90;1.00;;;;;;5068203;28;20438;-70
2021/03/13 07:24:09;;;;;;;4.03;3.73;;;8.00;1.00;;;;;;5068933;28;20422;-70
2021/03/13 07:26:40;;;;;;;3.80;3.50;;;8.10;1.00;;;;;;5067954;28;20445;-70
2021/03/13 07:29:08;;;;;;;3.60;3.40;;;8.20;1.00;;;;;;5068836;28;20400;-71
2021/03/13 07:31:41;;;;;;;3.20;2.90;;;8.30;99.90;;;;;;5068715;28;20433;-70
2021/03/13 07:34:18;;;;;;;3.40;3.20;;;8.40;15.80;;;;;;5069781;28;20469;-70
2021/03/13 07:36:50;;;;;;;3.90;3.60;;;8.40;1.00;;;;;;5067663;28;20442;-70
2021/03/13 07:39:18;;;;;;;3.97;3.67;;;8.50;1.00;;;;;;5069794;28;20411;-69
2021/03/13 07:41:57;;;;;;;3.20;2.90;;;8.40;1.00;;;;;;5068131;28;20481;-70
2021/03/13 07:44:22;;;;;;;2.50;2.40;;;8.50;99.90;;;;;;5063662;28;20857;-70
2021/03/13 07:46:49;;;;;;;2.13;2.00;;;8.50;99.90;;;;;;5056763;28;20445;-70
2021/03/13 07:49:16;;;;;;;2.53;2.40;;;8.60;1.00;;;;;;5067947;28;20198;-70
2021/03/13 07:51:45;;;;;;;2.20;2.10;;;8.70;1.00;;;;;;5069818;28;20418;-69
2021/03/13 07:54:12;;;;;;;2.67;2.47;;;8.90;99.90;;;;;;5068739;28;20936;-70
2021/03/13 07:56:45;;;;;;;2.47;2.37;;;8.90;99.90;;;;;;5069027;28;20399;-70
2021/03/13 07:59:12;;;;;;;2.40;2.30;;;9.00;99.90;;;;;;5068234;28;20431;-70
2021/03/13 08:01:48;;;;;;;2.10;2.00;;;9.10;99.90;;;;;;5069409;28;20913;-70
2021/03/13 08:04:43;;;;;;;2.60;2.40;;;9.20;99.90;;;;;;5067711;28;20481;-71
2021/03/13 08:07:09;;;;;;;2.90;2.70;;;9.30;99.90;;;;;;5060127;28;20431;-72
2021/03/13 08:09:44;;;;;;;2.63;2.43;;;9.40;99.90;;;;;;5068803;28;20434;-70
2021/03/13 08:12:10;;;;;;;2.60;2.50;;;9.50;99.90;;;;;;5070792;28;20215;-70
2021/03/13 08:14:36;;;;;;;2.70;2.37;;;9.60;99.90;;;;;;5076128;28;20474;-71
2021/03/13 08:17:11;;;;;;;3.40;2.83;;;9.70;57.00;;;;;;5065368;28;20478;-70
2021/03/13 08:19:43;;;;;;;2.70;2.60;;;9.80;36.30;;;;;;5067621;28;20200;-70
2021/03/13 08:22:10;;;;;;;2.40;2.30;;;9.90;1.00;;;;;;5068725;28;20424;-70
2021/03/13 08:24:47;;;;;;;2.70;2.60;;;10.00;1.00;;;;;;5068194;28;20517;-70
2021/03/13 08:27:15;;;;;;;2.30;2.20;;;10.10;1.00;;;;;;5067440;28;20902;-70
2021/03/13 08:29:59;;;;;;;1.93;1.83;;;10.20;1.00;;;;;;5066264;28;20443;-70
2021/03/13 08:32:57;;;;;;;2.33;2.23;;;10.20;1.00;;;;;;5069340;28;20443;-71
2021/03/13 08:35:35;;;;;;;2.17;2.07;;;10.20;1.00;;;;;;5072458;28;20486;-71
2021/03/13 08:38:02;;;;;;;2.30;2.20;;;10.30;1.00;;;;;;5073040;28;20423;-70
2021/03/13 08:40:28;;;;;;;2.07;1.97;;;10.50;1.00;;;;;;5071097;28;20482;-69
2021/03/13 08:42:53;;;;;;;1.90;1.80;;;10.50;1.00;;;;;;5070792;28;21489;-70
2021/03/13 08:45:20;;;;;;;1.93;1.83;;;10.60;1.00;;;;;;5072435;28;20419;-70
2021/03/13 08:47:54;;;;;;;1.93;1.60;;;10.70;1.00;;;;;;5071819;28;20188;-70
2021/03/13 08:50:47;;;;;;;1.90;1.80;;;10.90;1.00;;;;;;5072828;28;20762;-71
2021/03/13 08:53:48;;;;;;;1.90;1.80;;;11.10;1.00;;;;;;5072022;28;20419;-71
2021/03/13 08:56:37;;;;;;;2.20;2.00;;;11.10;1.00;;;;;;5012896;28;20440;-70
2021/03/13 08:59:20;;;;;;;1.80;1.70;;;11.30;1.00;;;;;;5067341;28;20431;-69
2021/03/13 09:02:05;;;;;;;1.60;1.60;;;11.50;1.00;;;;;;5072062;28;20563;-70
2021/03/13 09:04:31;;;;;;;1.97;1.87;;;11.70;1.00;;;;;;5072357;28;20523;-70
2021/03/13 09:07:02;;;;;;;1.90;1.80;;;11.70;1.00;;;;;;5068781;28;20438;-70
2021/03/13 09:09:30;;;;;;;2.00;1.90;;;11.70;1.00;;;;;;5072201;28;20434;-70
2021/03/13 09:11:58;;;;;;;1.90;1.80;;;11.90;1.00;;;;;;5071754;28;20451;-70
2021/03/13 09:14:24;;;;;;;1.60;1.60;;;11.90;1.00;;;;;;5071424;28;20817;-70
2021/03/13 09:16:50;;;;;;;1.70;1.70;;;11.80;1.00;;;;;;5071735;28;20415;-70
2021/03/13 09:19:16;;;;;;;2.13;2.03;;;11.90;1.00;;;;;;5071535;28;20778;-71
2021/03/13 09:21:46;;;;;;;1.87;1.77;;;11.90;1.00;;;;;;5070446;28;20280;-71
2021/03/13 09:24:14;;;;;;;1.80;1.80;;;11.80;1.00;;;;;;5071227;28;20193;-70
2021/03/13 09:26:40;;;;;;;1.53;1.50;;;11.70;1.00;;;;;;5072043;28;20419;-70
2021/03/13 09:29:06;;;;;;;1.70;1.70;;;11.60;1.00;;;;;;5070052;28;20427;-70
2021/03/13 09:31:32;;;;;;;1.90;1.80;;;11.50;1.00;;;;;;5072171;28;20431;-70
2021/03/13 09:34:17;;;;;;;2.17;1.87;;;11.60;1.00;;;;;;5071681;28;20551;-69
2021/03/13 09:36:47;;;;;;;1.83;1.77;;;11.70;1.00;;;;;;5071262;28;20435;-69
2021/03/13 09:39:20;;;;;;;1.50;1.50;;;11.60;99.90;;;;;;5071418;28;20407;-70
2021/03/13 09:42:11;;;;;;;2.17;1.97;;;11.50;99.90;;;;;;5063950;28;20489;-70
2021/03/13 09:44:39;;;;;;;1.90;1.80;;;11.40;1.00;;;;;;5073216;28;20427;-70
2021/03/13 09:47:16;;;;;;;1.80;1.80;;;11.50;1.00;;;;;;5081687;28;20416;-69
2021/03/13 09:49:48;;;;;;;2.03;1.93;;;11.50;1.00;;;;;;5070783;28;20476;-69
2021/03/13 09:52:14;;;;;;;3.97;1.90;;;11.50;99.90;;;;;;5071732;28;20426;-70
2021/03/13 09:54:41;;;;;;;1.70;1.70;;;11.30;99.90;;;;;;5070902;28;20462;-70
2021/03/13 09:57:11;;;;;;;1.83;1.80;;;11.20;99.90;;;;;;5071469;28;20427;-69
2021/03/13 09:59:37;;;;;;;1.70;1.70;;;11.30;1.00;;;;;;5069796;28;20454;-69
2021/03/13 10:02:02;;;;;;;1.70;1.70;;;11.40;1.00;;;;;;5070905;28;20427;-70
2021/03/13 10:04:30;;;;;;;1.80;1.70;;;11.40;1.00;;;;;;5071510;28;20432;-70
2021/03/13 10:06:56;;;;;;;1.80;1.70;;;11.50;99.90;;;;;;5070807;28;20486;-69
2021/03/13 10:09:21;;;;;;;1.87;1.80;;;11.50;99.90;;;;;;5069528;28;20459;-69
2021/03/13 10:11:47;;;;;;;1.80;1.77;;;11.40;1.00;;;;;;5067899;28;20188;-71
2021/03/13 10:14:17;;;;;;;1.70;1.60;;;11.50;99.90;;;;;;5070327;28;20213;-71
2021/03/13 10:16:43;;;;;;;1.70;1.70;;;11.70;99.90;;;;;;5063791;28;20189;-70
2021/03/13 10:19:32;;;;;;;2.00;1.90;;;11.70;99.90;;;;;;5060405;28;20493;-71
2021/03/13 10:22:09;;;;;;;1.80;1.70;;;11.70;99.90;;;;;;5060040;28;20929;-71
2021/03/13 10:24:53;;;;;;;2.00;1.90;;;11.80;99.90;;;;;;5059891;28;20457;-69
2021/03/13 10:27:29;;;;;;;2.00;1.90;;;11.80;99.90;;;;;;5054504;28;20775;-70
2021/03/13 10:30:03;;;;;;;1.83;1.80;;;11.80;99.90;;;;;;5061445;28;20430;-69
2021/03/13 10:32:31;;;;;;;2.30;2.20;;;11.90;99.90;;;;;;5061467;28;20434;-71
2021/03/13 10:35:09;;;;;;;1.90;1.80;;;11.90;99.90;;;;;;5061554;28;20475;-69
2021/03/13 10:37:40;;;;;;;1.80;1.80;;;11.90;99.90;;;;;;5074952;28;20443;-71
2021/03/13 10:40:08;;;;;;;1.80;1.80;;;11.70;99.90;;;;;;5062163;28;21542;-70
2021/03/13 10:42:35;;;;;;;1.93;1.83;;;11.60;99.90;;;;;;5060810;28;20439;-70
2021/03/13 10:45:15;;;;;;;2.10;1.90;;;11.60;99.90;;;;;;5061119;28;20987;-70
2021/03/13 10:47:42;;;;;;;2.13;2.00;;;11.60;99.90;;;;;;5061468;28;20427;-71
2021/03/13 10:50:08;;;;;;;2.00;1.90;;;11.50;99.90;;;;;;5059650;28;20447;-69
2021/03/13 10:52:35;;;;;;;2.03;1.93;;;11.60;99.90;;;;;;5060649;28;21811;-68
2021/03/13 10:55:01;;;;;;;1.80;1.70;;;11.80;99.90;;;;;;5060868;28;20470;-69
2021/03/13 10:57:26;;;;;;;2.00;1.90;;;11.70;99.90;;;;;;5060456;28;20440;-69
2021/03/13 10:59:52;;;;;;;2.10;2.00;;;11.70;99.90;;;;;;5061910;28;20220;-70
2021/03/13 11:02:17;;;;;;;1.80;1.70;;;11.60;99.90;;;;;;5070083;28;20253;-70
2021/03/13 11:04:43;;;;;;;1.80;1.70;;;11.60;99.90;;;;;;5062585;28;20283;-62
2021/03/13 11:07:09;;;;;;;1.80;1.70;;;11.60;99.90;;;;;;5060668;28;20605;-62
2021/03/13 11:09:35;;;;;;;2.10;2.00;;;11.60;99.90;;;;;;5060150;28;20219;-62
2021/03/13 11:12:00;;;;;;;1.90;1.90;;;11.60;99.90;;;;;;5058746;28;20194;-63
2021/03/13 11:14:26;;;;;;;2.00;1.90;;;11.60;99.90;;;;;;5060876;28;21017;-62
2021/03/13 11:16:52;;;;;;;2.30;2.10;;;11.70;99.90;;;;;;5060944;28;20552;-63
2021/03/13 11:19:17;;;;;;;1.63;1.63;;;11.80;99.90;;;;;;5060330;28;20185;-62
2021/03/13 11:21:43;;;;;;;2.00;1.90;;;11.80;99.90;;;;;;5060832;28;20189;-62
2021/03/13 11:24:10;;;;;;;1.80;1.80;;;11.60;99.90;;;;;;5059893;28;20481;-60
2021/03/13 11:26:36;;;;;;;2.00;1.90;;;11.50;99.90;;;;;;5052727;28;21103;-62
2021/03/13 11:29:02;;;;;;;2.20;2.10;;;11.50;99.90;;;;;;5057888;28;20443;-61
2021/03/13 11:31:28;;;;;;;2.07;1.97;;;11.50;99.90;;;;;;5062147;28;20842;-61
2021/03/13 11:33:53;;;;;;;2.10;2.00;;;11.40;99.90;;;;;;5070899;28;20486;-62
2021/03/13 11:36:19;;;;;;;3.03;2.40;;;11.50;99.90;;;;;;5080151;28;20180;-61
2021/03/13 11:38:45;;;;;;;2.27;2.17;;;11.80;99.90;;;;;;5077824;28;20192;-62
2021/03/13 11:41:11;;;;;;;2.17;2.07;;;12.00;99.90;;;;;;5068587;28;20447;-63
2021/03/13 11:43:39;;;;;;;1.97;1.87;;;12.20;99.90;;;;;;5069960;28;20542;-62
2021/03/13 11:46:08;;;;;;;2.30;2.20;;;12.20;99.90;;;;;;5070285;28;20444;-63
2021/03/13 11:48:33;;;;;;;2.20;2.10;;;12.20;99.90;;;;;;5068111;28;20504;-63
2021/03/13 11:50:59;;;;;;;2.47;2.30;;;12.30;99.90;;;;;;5060797;28;20993;-62
2021/03/13 11:53:25;;;;;;;2.10;2.00;;;12.30;99.90;;;;;;5068049;28;20192;-62
2021/03/13 11:55:50;;;;;;;2.00;1.93;;;12.30;99.90;;;;;;5067251;28;20300;-61
2021/03/13 11:58:16;;;;;;;2.10;2.00;;;12.40;99.90;;;;;;5068048;28;20181;-61
2021/03/13 12:00:42;;;;;;;2.10;2.00;;;12.50;99.90;;;;;;5066626;28;20199;-60
2021/03/13 12:03:08;;;;;;;2.37;2.27;;;12.30;99.90;;;;;;5066049;28;20220;-61
2021/03/13 12:05:33;;;;;;;2.10;2.00;;;12.50;99.90;;;;;;5068894;28;20197;-60
2021/03/13 12:07:59;;;;;;;2.47;2.37;;;12.60;99.90;;;;;;5067033;28;20196;-61
2021/03/13 12:10:25;;;;;;;2.40;2.30;;;12.80;99.90;;;;;;5068974;28;20477;-61
2021/03/13 12:12:51;;;;;;;2.37;2.27;;;12.90;99.90;;;;;;5069146;28;20220;-61
2021/03/13 12:15:17;;;;;;;2.03;1.93;;;12.90;99.90;;;;;;5060893;28;20267;-60
2021/03/13 12:17:42;;;;;;;2.50;2.30;;;13.00;99.90;;;;;;5067026;28;20446;-60
2021/03/13 12:20:09;;;;;;;2.80;1.90;;;13.10;99.90;;;;;;5068585;28;20411;-62
2021/03/13 12:22:36;;;;;;;2.40;2.20;;;13.00;99.90;;;;;;5070983;28;20216;-62
2021/03/13 12:25:06;;;;;;;2.20;2.00;;;13.00;97.80;;;;;;5067559;28;20868;-60
2021/03/13 12:27:31;;;;;;;2.10;2.00;;;13.00;99.90;;;;;;5064027;28;20458;-61
2021/03/13 12:29:57;;;;;;;1.90;1.80;;;13.00;99.90;;;;;;5067033;28;20438;-62
2021/03/13 12:32:22;;;;;;;2.10;2.00;;;13.30;99.90;;;;;;5066374;28;20250;-62
2021/03/13 12:34:48;;;;;;;2.20;1.87;;;13.60;99.90;;;;;;5064244;28;20213;-61
2021/03/13 12:37:14;;;;;;;3.37;2.83;;;14.20;99.90;;;;;;5064920;28;20190;-61
2021/03/13 12:39:40;;;;;;;2.10;2.00;;;14.30;99.90;;;;;;5070577;28;20200;-62
2021/03/13 12:42:06;;;;;;;2.07;1.83;;;14.10;99.90;;;;;;5069897;28;20821;-61
2021/03/13 12:44:32;;;;;;;1.97;1.83;;;13.90;99.90;;;;;;5067072;28;20935;-60
2021/03/13 12:46:58;;;;;;;2.80;1.90;;;14.00;99.90;;;;;;5067144;28;20517;-60
2021/03/13 12:49:24;;;;;;;1.70;1.60;;;13.80;99.90;;;;;;5065437;28;20522;-62
2021/03/13 12:51:49;;;;;;;2.27;2.10;;;13.60;99.90;;;;;;5067503;28;20485;-62
2021/03/13 12:54:15;;;;;;;2.10;2.00;;;13.40;99.90;;;;;;5066619;28;20197;-61
2021/03/13 12:56:41;;;;;;;1.83;1.73;;;13.60;99.90;;;;;;5066397;28;20193;-61
2021/03/13 12:59:06;;;;;;;1.80;1.70;;;13.70;99.90;;;;;;5067815;28;20620;-62
2021/03/13 13:01:32;;;;;;;2.20;2.10;;;13.60;99.90;;;;;;5070458;28;20190;-61
2021/03/13 13:03:59;;;;;;;1.97;1.87;;;13.50;99.90;;;;;;5063394;28;20332;-61
2021/03/13 13:06:25;;;;;;;2.10;2.00;;;13.40;99.90;;;;;;5082302;28;20185;-61
2021/03/13 13:08:53;;;;;;;1.90;1.80;;;13.40;99.90;;;;;;5067415;28;20514;-60